Birch Beach, Minnesota
Current Conditions -  °F | °C
As of 8:53 PM on Tuesday 25 Nov 2014 (Local Time) from KBDE Reporting Station
Overcast Overcast  
Wind Chill:   Ceiling: 10000
Heat Index: 14°   Visibility: 8mi
Dew Point: 10°   Wind: 8mph
Humidity: 84%   Direction: 350°N
Pressure: 30.01"   Gusts: NA
Location:  48.7484°N, 94.9438°W
Report Text: KBDE 260253Z AUTO 35007KT 8SM SCT034 OVC100 M10/M12 A3001 RMK AO2 SNE44 SLP193 P0000 60000 T11001122 53014 TSNO
Loading
Personal Weather Stations






























Interactive Weather Map New forecast layout! Learn more

10-Day Weather Forecast

Advertisements
Track Severe Weather on mobile